createdAt,value
2023-01-17T00:00:52.146Z,64.94
2023-01-17T00:03:18.678Z,65.76
2023-01-17T00:05:46.336Z,64.48
2023-01-17T00:08:12.835Z,64.04
2023-01-17T00:10:48.563Z,63.57
2023-01-17T00:13:15.690Z,62.02
2023-01-17T00:15:44.012Z,61.34
2023-01-17T00:18:11.051Z,64.10
2023-01-17T00:20:40.306Z,66.48
2023-01-17T00:23:07.619Z,65.72
2023-01-17T00:25:34.577Z,65.70
2023-01-17T00:28:01.728Z,64.57
2023-01-17T00:30:29.317Z,65.44
2023-01-17T00:32:59.308Z,64.20
2023-01-17T00:35:26.716Z,63.63
2023-01-17T00:37:55.218Z,64.65
2023-01-17T00:40:21.952Z,65.51
2023-01-17T00:42:49.141Z,64.97
2023-01-17T00:45:18.859Z,63.95
2023-01-17T00:47:45.510Z,63.21
2023-01-17T00:50:14.567Z,65.44
2023-01-17T00:52:43.702Z,65.05
2023-01-17T00:55:11.097Z,63.54
2023-01-17T00:57:37.722Z,62.79
2023-01-17T01:00:04.333Z,63.86
2023-01-17T01:02:31.755Z,68.02
2023-01-17T01:04:58.628Z,66.74
2023-01-17T01:07:32.951Z,66.85
2023-01-17T01:09:59.814Z,66.62
2023-01-17T01:12:27.180Z,65.92
2023-01-17T01:14:55.338Z,64.20
2023-01-17T01:17:22.283Z,62.85
2023-01-17T01:19:49.312Z,63.84
2023-01-17T01:22:16.168Z,65.30
2023-01-17T01:24:50.320Z,64.08
2023-01-17T01:27:17.794Z,63.17
2023-01-17T01:29:44.686Z,62.08
2023-01-17T01:32:13.477Z,62.09
2023-01-17T01:34:40.118Z,61.15
2023-01-17T01:37:14.457Z,60.50
2023-01-17T01:39:41.665Z,60.98
2023-01-17T01:42:08.821Z,60.86
2023-01-17T01:44:35.445Z,60.23
2023-01-17T01:47:02.153Z,60.28
2023-01-17T01:49:36.274Z,60.21
2023-01-17T01:52:10.512Z,59.79
2023-01-17T01:54:37.878Z,61.10
2023-01-17T01:57:05.986Z,61.46
2023-01-17T01:59:32.961Z,65.58
2023-01-17T02:02:00.385Z,70.84
2023-01-17T02:04:27.749Z,71.58
2023-01-17T02:06:55.303Z,71.73
2023-01-17T02:09:23.551Z,70.14
2023-01-17T02:11:50.071Z,68.29
2023-01-17T02:14:24.135Z,70.97
2023-01-17T02:16:51.051Z,73.37
2023-01-17T02:19:19.885Z,74.47
2023-01-17T02:21:46.523Z,74.42
2023-01-17T02:24:13.309Z,73.44
2023-01-17T02:26:41.487Z,72.71
2023-01-17T02:29:08.422Z,70.50
2023-01-17T02:31:35.001Z,69.87
2023-01-17T02:34:01.714Z,70.21
2023-01-17T02:36:28.572Z,71.37
2023-01-17T02:38:55.153Z,71.96
2023-01-17T02:41:21.946Z,72.10
2023-01-17T02:43:48.404Z,70.20
2023-01-17T02:46:15.329Z,69.96
2023-01-17T02:48:44.377Z,69.31
2023-01-17T02:51:11.237Z,68.66
2023-01-17T02:53:37.989Z,66.71
2023-01-17T02:56:04.500Z,65.67
2023-01-17T02:58:31.340Z,65.88
2023-01-17T03:00:58.247Z,66.26
2023-01-17T03:03:26.798Z,63.78
2023-01-17T03:05:53.421Z,63.67
2023-01-17T03:08:21.751Z,62.07
2023-01-17T03:10:56.089Z,60.92
2023-01-17T03:13:22.765Z,61.82
2023-01-17T03:15:49.488Z,62.52
2023-01-17T03:18:16.773Z,62.27
2023-01-17T03:20:43.649Z,64.31
2023-01-17T03:23:10.914Z,64.23
2023-01-17T03:25:37.943Z,64.21
2023-01-17T03:28:05.884Z,62.90
2023-01-17T03:30:33.141Z,62.43
2023-01-17T03:33:00.063Z,61.85
2023-01-17T03:35:26.953Z,65.16
2023-01-17T03:37:55.899Z,66.11
2023-01-17T03:40:22.792Z,64.76
2023-01-17T03:42:50.334Z,62.71
2023-01-17T03:45:17.271Z,64.34
2023-01-17T03:47:46.357Z,65.98
2023-01-17T03:50:13.882Z,68.05
2023-01-17T03:52:41.428Z,66.66
2023-01-17T03:55:08.228Z,65.56
2023-01-17T03:57:35.725Z,63.87
2023-01-17T04:00:03.339Z,62.25
2023-01-17T04:02:31.530Z,61.24
2023-01-17T04:05:00.689Z,60.18
2023-01-17T04:07:27.953Z,59.24
2023-01-17T04:09:54.424Z,59.16
2023-01-17T04:12:20.986Z,59.90
2023-01-17T04:14:55.278Z,60.28
2023-01-17T04:17:22.625Z,59.83
2023-01-17T04:19:49.275Z,58.85
2023-01-17T04:22:16.628Z,58.96
2023-01-17T04:24:45.213Z,57.88
2023-01-17T04:27:12.131Z,57.65
2023-01-17T04:29:39.467Z,57.15
2023-01-17T04:32:06.221Z,57.05
2023-01-17T04:34:35.749Z,57.30
2023-01-17T04:37:09.793Z,56.45
2023-01-17T04:39:36.878Z,58.72
2023-01-17T04:42:04.278Z,59.19
2023-01-17T04:44:31.084Z,63.40
2023-01-17T04:46:58.150Z,66.59
2023-01-17T04:49:25.443Z,68.47
2023-01-17T04:51:52.015Z,69.21
2023-01-17T04:54:18.673Z,67.28
2023-01-17T04:56:50.499Z,67.82
2023-01-17T04:59:17.139Z,65.62
2023-01-17T05:01:51.309Z,62.53
2023-01-17T05:04:18.865Z,60.34
2023-01-17T05:06:46.266Z,58.97
2023-01-17T05:09:12.939Z,60.59
2023-01-17T05:11:39.478Z,60.37
2023-01-17T05:14:07.055Z,59.11
2023-01-17T05:16:33.680Z,58.11
2023-01-17T05:19:00.955Z,56.65
2023-01-17T05:21:27.878Z,55.84
2023-01-17T05:23:55.083Z,56.12
2023-01-17T05:26:21.596Z,55.10
2023-01-17T05:28:48.504Z,55.95
2023-01-17T05:31:15.582Z,56.55
2023-01-17T05:33:42.446Z,56.52
2023-01-17T05:36:11.422Z,56.60
2023-01-17T05:41:43.326Z,55.04
2023-01-17T05:44:09.909Z,56.47
2023-01-17T05:46:36.844Z,56.78
2023-01-17T05:49:04.505Z,56.59
2023-01-17T05:51:34.100Z,56.05
2023-01-17T05:54:00.987Z,56.38
2023-01-17T05:56:30.271Z,55.66
2023-01-17T05:58:56.889Z,54.66
2023-01-17T06:01:24.190Z,54.28
2023-01-17T06:03:51.198Z,55.07
2023-01-17T06:06:18.007Z,57.33
2023-01-17T06:08:44.808Z,57.11
2023-01-17T06:11:11.440Z,58.58
2023-01-17T06:13:40.336Z,57.97
2023-01-17T06:16:10.161Z,56.83
2023-01-17T06:18:39.364Z,55.27
2023-01-17T06:21:09.384Z,55.13
2023-01-17T06:23:36.207Z,54.64
2023-01-17T06:26:02.953Z,53.74
2023-01-17T06:28:29.539Z,54.26
2023-01-17T06:30:57.566Z,56.97
2023-01-17T06:33:25.449Z,57.85
2023-01-17T06:35:52.684Z,59.74
2023-01-17T06:38:19.194Z,58.45
2023-01-17T06:40:45.877Z,58.59
2023-01-17T06:43:12.507Z,59.99
2023-01-17T06:45:41.321Z,58.71
2023-01-17T06:48:08.018Z,56.93
2023-01-17T06:50:34.715Z,54.67
2023-01-17T06:53:01.720Z,55.39
2023-01-17T06:55:28.575Z,55.71
2023-01-17T06:57:55.498Z,55.60
2023-01-17T07:00:24.457Z,53.33
2023-01-17T07:02:52.900Z,56.37
2023-01-17T07:05:20.204Z,55.57
2023-01-17T07:07:47.089Z,56.71
2023-01-17T07:10:16.173Z,59.91
2023-01-17T07:18:06.271Z,64.63
2023-01-17T07:20:39.066Z,65.02
2023-01-17T07:23:05.686Z,63.28
2023-01-17T07:25:34.689Z,64.95
2023-01-17T07:28:03.152Z,64.42
2023-01-17T07:30:30.971Z,63.42
2023-01-17T07:32:59.063Z,63.29
2023-01-17T07:35:26.828Z,64.18
2023-01-17T07:37:53.634Z,65.39
2023-01-17T07:40:20.554Z,65.15
2023-01-17T07:42:52.650Z,64.88
2023-01-17T07:45:19.813Z,62.34
2023-01-17T07:47:46.945Z,63.85
2023-01-17T07:50:14.178Z,63.36
2023-01-17T07:52:58.224Z,62.02
2023-01-17T07:55:25.334Z,60.36
2023-01-17T07:57:51.899Z,58.78
2023-01-17T08:00:18.946Z,57.26
2023-01-17T08:02:47.167Z,57.67
2023-01-17T08:05:14.389Z,58.88
2023-01-17T08:11:04.891Z,62.12
2023-01-17T08:13:32.165Z,60.80
2023-01-17T08:15:58.834Z,60.52
2023-01-17T08:18:25.991Z,61.79
2023-01-17T08:20:53.061Z,61.21
2023-01-17T08:23:21.191Z,59.85
2023-01-17T08:25:50.184Z,59.41
2023-01-17T08:28:20.972Z,60.78
2023-01-17T08:30:47.839Z,62.41
2023-01-17T08:33:14.878Z,62.34
2023-01-17T08:35:41.882Z,64.52
2023-01-17T08:41:26.434Z,63.42
2023-01-17T08:43:53.877Z,62.87
2023-01-17T08:46:22.107Z,66.30
2023-01-17T08:48:56.426Z,64.91
2023-01-17T08:51:23.316Z,65.87
2023-01-17T08:53:51.766Z,66.85
2023-01-17T08:56:19.681Z,70.71
2023-01-17T08:58:46.320Z,69.34
2023-01-17T09:01:13.735Z,66.86
2023-01-17T09:03:42.655Z,69.19
2023-01-17T09:06:10.296Z,71.58
2023-01-17T09:08:38.817Z,68.87
2023-01-17T09:11:05.998Z,69.23
2023-01-17T09:13:33.279Z,69.57
2023-01-17T09:16:01.574Z,69.12
2023-01-17T09:18:28.936Z,70.48
2023-01-17T09:20:58.245Z,72.97
2023-01-17T09:23:24.964Z,71.99
2023-01-17T09:25:53.617Z,72.31
2023-01-17T09:28:21.203Z,73.71
2023-01-17T09:30:50.181Z,73.55
2023-01-17T09:33:17.150Z,73.79
2023-01-17T09:35:44.201Z,73.52
2023-01-17T09:38:12.735Z,72.03
2023-01-17T09:40:39.580Z,69.47
2023-01-17T09:43:08.754Z,69.83
2023-01-17T09:45:37.296Z,71.20
2023-01-17T09:48:04.526Z,69.74
2023-01-17T09:50:33.730Z,67.89
2023-01-17T09:53:04.085Z,68.25
2023-01-17T09:55:34.020Z,67.75
2023-01-17T09:58:04.954Z,65.47
2023-01-17T10:00:33.123Z,64.55
2023-01-17T10:03:03.180Z,67.50
2023-01-17T10:05:30.225Z,67.24
2023-01-17T10:07:57.639Z,69.79
2023-01-17T10:10:24.496Z,70.43
2023-01-17T10:12:51.494Z,71.11
2023-01-17T10:15:18.739Z,71.64
2023-01-17T10:17:47.022Z,72.21
2023-01-17T10:20:14.748Z,72.74
2023-01-17T10:25:44.999Z,73.87
2023-01-17T10:28:13.041Z,75.15
2023-01-17T10:30:40.327Z,76.72
2023-01-17T10:33:07.742Z,77.38
2023-01-17T10:35:34.736Z,77.02
2023-01-17T10:38:02.997Z,75.14
2023-01-17T10:40:30.618Z,73.67
2023-01-17T10:42:58.113Z,72.25
2023-01-17T10:45:25.529Z,73.33
2023-01-17T10:47:54.344Z,70.31
2023-01-17T10:50:22.434Z,67.63
2023-01-17T10:52:50.021Z,66.59
2023-01-17T10:55:20.052Z,67.03
2023-01-17T10:57:46.909Z,69.41
2023-01-17T11:00:13.830Z,70.87
2023-01-17T11:02:40.814Z,73.54
2023-01-17T11:05:08.014Z,76.26
2023-01-17T11:07:40.054Z,77.68
2023-01-17T11:19:00.229Z,71.64
2023-01-17T11:21:27.698Z,69.62
2023-01-17T11:23:57.777Z,69.63
2023-01-17T11:26:28.479Z,71.48
2023-01-17T11:28:55.668Z,70.37
2023-01-17T11:31:30.477Z,68.96
2023-01-17T11:33:58.872Z,68.32
2023-01-17T11:39:33.622Z,69.84
2023-01-17T11:42:00.700Z,67.37
2023-01-17T11:44:27.458Z,67.20
2023-01-17T11:46:54.318Z,68.68
2023-01-17T11:49:23.383Z,70.69
2023-01-17T11:51:50.256Z,71.02
2023-01-17T11:54:21.661Z,68.79
2023-01-17T11:56:48.536Z,66.96
2023-01-17T11:59:15.616Z,67.40
2023-01-17T12:01:43.180Z,65.29
2023-01-17T12:04:10.699Z,63.86
2023-01-17T12:06:56.112Z,63.01
2023-01-17T12:12:05.565Z,60.92
2023-01-17T12:14:33.841Z,61.03
2023-01-17T12:17:06.233Z,61.05
2023-01-17T12:19:34.325Z,62.74
2023-01-17T12:22:01.575Z,62.35
2023-01-17T12:24:31.563Z,66.01
2023-01-17T12:26:58.606Z,67.48
2023-01-17T12:29:28.066Z,65.43
2023-01-17T12:31:56.310Z,64.42
2023-01-17T12:34:22.935Z,63.34
2023-01-17T12:36:50.389Z,62.33
2023-01-17T12:39:19.204Z,61.32
2023-01-17T12:41:59.740Z,60.43
2023-01-17T12:44:27.575Z,60.31
2023-01-17T12:46:54.637Z,59.58
2023-01-17T12:49:21.648Z,59.37
2023-01-17T12:51:48.815Z,59.15
2023-01-17T12:54:15.774Z,58.94
2023-01-17T12:56:42.806Z,58.80
2023-01-17T12:59:10.204Z,58.26
2023-01-17T13:01:37.769Z,59.05
2023-01-17T13:04:05.615Z,58.18
2023-01-17T13:06:32.452Z,60.43
2023-01-17T13:08:59.293Z,61.35
2023-01-17T13:11:26.271Z,61.49
2023-01-17T13:13:55.800Z,60.17
2023-01-17T13:16:23.478Z,59.95
2023-01-17T13:18:52.339Z,59.44
2023-01-17T13:21:18.966Z,59.01
2023-01-17T13:23:48.147Z,59.73
2023-01-17T13:26:18.434Z,60.92
2023-01-17T13:28:45.228Z,60.41
2023-01-17T13:31:13.598Z,61.09
2023-01-17T13:33:42.051Z,60.40
2023-01-17T13:36:10.914Z,59.20
2023-01-17T13:38:37.887Z,59.55
2023-01-17T13:41:04.818Z,59.56
2023-01-17T13:43:33.253Z,59.28
2023-01-17T13:46:00.574Z,61.07
2023-01-17T13:48:27.256Z,60.70
2023-01-17T13:50:54.034Z,62.43
2023-01-17T13:53:20.671Z,63.27
2023-01-17T13:55:47.671Z,62.97
2023-01-17T13:58:14.616Z,64.26
2023-01-17T14:00:41.672Z,65.70
2023-01-17T14:03:08.458Z,68.86
2023-01-17T14:05:35.943Z,70.13
2023-01-17T14:08:02.996Z,71.13
2023-01-17T14:10:31.655Z,67.78
2023-01-17T14:12:58.430Z,64.53
2023-01-17T14:15:25.979Z,62.97
2023-01-17T14:18:26.609Z,64.09
2023-01-17T14:20:46.085Z,64.48
2023-01-17T14:26:06.006Z,66.18
2023-01-17T14:28:33.760Z,68.89
2023-01-17T14:31:00.513Z,70.19
2023-01-17T14:33:27.434Z,70.00
2023-01-17T14:35:54.526Z,66.73
2023-01-17T14:38:21.144Z,65.18
2023-01-17T14:40:50.773Z,65.61
2023-01-17T14:43:17.934Z,64.70
2023-01-17T14:45:44.959Z,61.71
2023-01-17T14:48:14.026Z,60.42
2023-01-17T14:50:43.435Z,61.34
2023-01-17T14:53:12.176Z,62.28
2023-01-17T14:55:39.756Z,61.63
2023-01-17T14:58:07.353Z,61.53
2023-01-17T15:00:38.919Z,63.67
2023-01-17T15:03:06.693Z,66.42
2023-01-17T15:05:34.985Z,65.16
2023-01-17T15:08:01.640Z,63.25
2023-01-17T15:10:30.138Z,61.65
2023-01-17T15:12:58.629Z,60.75
2023-01-17T15:15:26.636Z,60.42
2023-01-17T15:17:53.642Z,59.76
2023-01-17T15:20:20.312Z,62.49
2023-01-17T15:22:46.943Z,63.41
2023-01-17T15:25:16.141Z,62.87
2023-01-17T15:27:43.626Z,62.78
2023-01-17T15:30:10.265Z,62.35
2023-01-17T15:32:39.388Z,64.94
2023-01-17T15:35:06.374Z,63.13
2023-01-17T15:37:33.258Z,62.34
2023-01-17T15:40:00.289Z,62.03
2023-01-17T15:42:26.991Z,61.57
2023-01-17T15:44:56.079Z,62.71
2023-01-17T15:50:07.929Z,69.65
2023-01-17T15:52:34.574Z,72.20
2023-01-17T16:01:23.949Z,73.90
2023-01-17T16:03:54.052Z,73.61
2023-01-17T16:06:21.008Z,75.06
2023-01-17T16:08:50.188Z,75.25
2023-01-17T16:11:18.908Z,74.68
2023-01-17T16:13:47.398Z,70.74
2023-01-17T16:16:17.792Z,67.84
2023-01-17T16:18:47.286Z,67.47
2023-01-17T16:21:17.819Z,64.58
2023-01-17T16:23:47.164Z,63.10
2023-01-17T16:26:14.694Z,62.87
2023-01-17T16:28:43.177Z,61.77
2023-01-17T16:31:10.028Z,61.65
2023-01-17T16:33:39.057Z,61.33
2023-01-17T16:36:07.071Z,62.90
2023-01-17T16:38:37.081Z,63.18
2023-01-17T16:41:03.778Z,62.37
2023-01-17T16:43:31.174Z,60.93
2023-01-17T16:45:58.598Z,60.50
2023-01-17T16:48:27.775Z,60.43
2023-01-17T16:50:59.428Z,63.03
2023-01-17T16:53:26.400Z,62.21
2023-01-17T16:55:53.282Z,62.14
2023-01-17T16:58:31.962Z,62.74
2023-01-17T17:00:58.988Z,66.22
2023-01-17T17:03:26.142Z,63.09
2023-01-17T17:05:52.923Z,64.88
2023-01-17T17:08:20.036Z,68.06
2023-01-17T17:10:47.206Z,67.55
2023-01-17T17:13:14.164Z,67.11
2023-01-17T17:15:49.630Z,68.61
2023-01-17T17:18:19.305Z,73.38
2023-01-17T17:20:46.152Z,73.08
2023-01-17T17:23:12.925Z,73.42
2023-01-17T17:25:43.327Z,75.07
2023-01-17T17:28:13.140Z,74.57
2023-01-17T17:30:39.786Z,75.05
2023-01-17T17:33:07.380Z,74.63
2023-01-17T17:35:36.550Z,70.65
2023-01-17T17:38:03.559Z,69.55
2023-01-17T17:40:33.260Z,70.76
2023-01-17T17:42:59.762Z,72.32
2023-01-17T18:01:49.074Z,66.21
2023-01-17T18:04:16.869Z,70.18
2023-01-17T18:06:43.685Z,66.62
2023-01-17T18:12:13.389Z,66.74
2023-01-17T18:14:40.244Z,67.50
2023-01-17T18:17:06.734Z,66.54
2023-01-17T18:32:45.404Z,61.36
2023-01-17T18:35:12.787Z,63.04
2023-01-17T18:37:43.132Z,63.72
2023-01-17T18:40:13.664Z,65.22
2023-01-17T18:42:41.644Z,65.15
2023-01-17T18:45:08.439Z,63.15
2023-01-17T18:47:36.832Z,62.66
2023-01-17T18:50:06.209Z,58.65
2023-01-17T18:55:33.647Z,57.13
2023-01-17T19:00:56.801Z,53.76
2023-01-17T19:03:23.646Z,53.01
2023-01-17T19:05:50.450Z,52.84
2023-01-17T19:11:06.024Z,52.34
2023-01-17T19:13:33.616Z,52.72
2023-01-17T19:16:00.267Z,55.32
2023-01-17T19:18:28.660Z,61.36
2023-01-17T19:20:55.595Z,60.03
2023-01-17T19:23:24.176Z,59.85
2023-01-17T19:25:52.426Z,62.33
2023-01-17T19:28:19.144Z,61.30
2023-01-17T19:30:47.269Z,57.47
2023-01-17T19:33:14.191Z,55.22
2023-01-17T19:35:44.445Z,55.38
2023-01-17T19:38:11.757Z,57.89
2023-01-17T19:40:38.606Z,57.31
2023-01-17T19:46:22.119Z,52.43
2023-01-17T19:48:49.084Z,52.92
2023-01-17T19:57:38.807Z,54.45
2023-01-17T20:00:06.600Z,55.01
2023-01-17T20:02:33.689Z,54.12
2023-01-17T20:05:01.893Z,52.80
2023-01-17T20:07:30.818Z,53.70
2023-01-17T20:09:57.476Z,51.59
2023-01-17T20:12:28.219Z,52.21
2023-01-17T20:15:01.173Z,55.23
2023-01-17T20:17:36.202Z,56.46
2023-01-17T20:20:03.554Z,56.11
2023-01-17T20:22:30.460Z,56.58
2023-01-17T20:24:57.048Z,57.92
2023-01-17T20:27:26.634Z,57.61
2023-01-17T20:30:18.820Z,59.05
2023-01-17T20:32:50.778Z,61.40
2023-01-17T20:35:20.717Z,59.21
2023-01-17T20:37:47.450Z,61.13
2023-01-17T20:40:17.473Z,60.74
2023-01-17T20:42:51.123Z,61.20
2023-01-17T22:14:50.886Z,59.36
2023-01-17T22:17:20.250Z,60.73
2023-01-17T22:19:47.296Z,59.26
2023-01-17T22:22:14.185Z,58.84
2023-01-17T22:24:40.662Z,57.66
2023-01-17T22:27:07.635Z,57.64
2023-01-17T22:29:34.275Z,57.29
2023-01-17T22:32:01.764Z,56.43
2023-01-17T22:37:08.620Z,54.20
2023-01-17T22:39:42.913Z,55.07
2023-01-17T22:42:10.363Z,54.26
2023-01-17T22:44:37.553Z,52.56
2023-01-17T22:47:04.868Z,52.41
2023-01-17T22:49:32.144Z,53.30
2023-01-17T22:52:02.276Z,53.76
2023-01-17T22:54:29.505Z,52.74
2023-01-17T22:56:56.360Z,51.82
2023-01-17T22:59:23.263Z,51.88
2023-01-17T23:01:50.097Z,51.62
2023-01-17T23:04:19.200Z,51.32
2023-01-17T23:06:46.176Z,51.48
2023-01-17T23:09:20.475Z,50.96
2023-01-17T23:11:47.491Z,51.15
2023-01-17T23:14:14.838Z,52.47
2023-01-17T23:16:41.620Z,54.95
2023-01-17T23:19:09.242Z,56.56
2023-01-17T23:21:36.786Z,56.85
2023-01-17T23:24:05.835Z,58.04
2023-01-17T23:26:33.248Z,59.68
2023-01-17T23:29:00.423Z,59.18
2023-01-17T23:31:27.384Z,60.79
2023-01-17T23:33:54.321Z,62.26
2023-01-17T23:36:24.604Z,63.73
2023-01-17T23:38:54.564Z,64.45
2023-01-17T23:41:21.490Z,65.37
2023-01-17T23:43:48.377Z,66.63
2023-01-17T23:46:15.783Z,67.37
2023-01-17T23:48:42.736Z,68.36
2023-01-17T23:51:10.126Z,70.96
2023-01-17T23:53:38.974Z,70.83
2023-01-17T23:56:06.723Z,71.59
2023-01-17T23:58:40.352Z,72.62
